»·PEaware :: N732SG KSAN-KSNA

N732SG :: KSAN-KSNA

FLIGHT INFORMATION

Flight Status: Arrived
Operator: Privately registered:
United States
More flights under this callsign
Pilot: Scott G. (88)
Aircraft: CESSNA 172 SKYHAWK
(C172)
More flights by this aircraft type
Origin: KSAN San Diego Intl-Lindbergh
United States
Destination: KSNA John Wayne-Orange Co
United States
More flights between these airports :: More routes between these airports
Route: MZB OCN DANAH DCT
File this flight plan on PilotEdge
Remarks:
Altitude:
(Current/Filed)
6,500ft
Speed:
(Current/Filed)
110kts
Departed: 08-May-17 09:31 AM
Arrived: 08-May-17 10:14 AM
Distance/Time
Traveled:
66nm/0:43
Distance/Time
To Go:
Arrived

Flight Plot

Page will automatically refresh every two minutes.

Flight plan parsing failed; only flown route is shown


Map Options




Map Legend


Flown Route
Filed Route
Departure Airport
Arrival Airport
Navaid (VOR, NDB)
Fix

Horizontal Profiles

Position Reports

Time Latitude Longitude Heading Altitude Ground
Speed
08-May-17 09:22 32.732765 -117.178185 232 21ft 0kts
08-May-17 09:23 32.732765 -117.178185 232 21ft 0kts
08-May-17 09:24 32.732765 -117.178185 232 21ft 0kts
08-May-17 09:25 32.732765 -117.178185 232 21ft 0kts
08-May-17 09:26 32.732765 -117.178185 232 21ft 0kts
08-May-17 09:27 32.732765 -117.178185 232 21ft 0kts
08-May-17 09:28 32.732049 -117.178525 172 21ft 5kts
08-May-17 09:29 32.731030 -117.175229 246 21ft 6kts
08-May-17 09:30 32.731044 -117.175293 322 21ft 0kts
08-May-17 09:31 32.730968 -117.175401 183 21ft 0kts
08-May-17 09:32 32.730507 -117.175395 185 21ft 14kts
08-May-17 09:33 32.733761 -117.192926 292 545ft 74kts
08-May-17 09:34 32.747440 -117.210275 321 1438ft 76kts
08-May-17 09:35 32.766034 -117.229411 322 1940ft 107kts
08-May-17 09:36 32.788260 -117.252025 322 2495ft 99kts
08-May-17 09:37 32.808201 -117.272829 322 3181ft 93kts
08-May-17 09:38 32.825264 -117.291440 322 4036ft 78kts
08-May-17 09:39 32.845339 -117.297836 353 4555ft 98kts
08-May-17 09:40 32.874304 -117.304614 349 4536ft 108kts
08-May-17 09:41 32.903641 -117.313011 347 4527ft 109kts
08-May-17 09:42 32.933044 -117.321931 347 4527ft 110kts
08-May-17 09:43 32.962829 -117.331125 346 4527ft 111kts
08-May-17 09:44 32.991969 -117.340194 346 4781ft 104kts
08-May-17 09:45 33.019329 -117.348727 347 5270ft 100kts
08-May-17 09:46 33.045683 -117.356929 348 5756ft 97kts
08-May-17 09:47 33.070198 -117.364555 349 6219ft 95kts
08-May-17 09:48 33.095555 -117.372431 350 6656ft 98kts
08-May-17 09:49 33.121925 -117.380552 349 6520ft 109kts
08-May-17 09:50 33.150664 -117.389471 350 6518ft 106kts
08-May-17 09:51 33.179121 -117.398293 351 6521ft 105kts
08-May-17 09:52 33.207353 -117.407041 351 6524ft 105kts
08-May-17 09:53 33.237261 -117.416353 346 6305ft 117kts
08-May-17 09:54 33.264004 -117.441790 326 5990ft 126kts
08-May-17 09:55 33.290548 -117.468800 325 5697ft 125kts
08-May-17 09:56 33.316737 -117.495781 324 5408ft 124kts
08-May-17 09:57 33.338132 -117.528835 313 5055ft 130kts
08-May-17 09:58 33.363392 -117.560411 319 4467ft 129kts
08-May-17 09:59 33.388810 -117.590222 319 3873ft 127kts
08-May-17 10:00 33.413713 -117.619357 319 3285ft 126kts
08-May-17 10:01 33.438550 -117.648412 318 2692ft 124kts
08-May-17 10:02 33.462199 -117.676138 318 2365ft 107kts
08-May-17 10:03 33.482975 -117.699636 324 2352ft 102kts
08-May-17 10:04 33.502761 -117.717670 324 2344ft 103kts
08-May-17 10:05 33.525851 -117.738506 323 2342ft 104kts
08-May-17 10:06 33.549203 -117.759540 323 2342ft 104kts
08-May-17 10:07 33.572483 -117.780518 323 2342ft 104kts
08-May-17 10:08 33.595719 -117.801474 323 2342ft 104kts
08-May-17 10:09 33.619712 -117.824460 318 1932ft 111kts
08-May-17 10:10 33.642334 -117.847529 319 1434ft 107kts
08-May-17 10:11 33.664628 -117.854711 32 1069ft 71kts
08-May-17 10:12 33.680345 -117.842534 36 1074ft 67kts
08-May-17 10:13 33.694576 -117.839087 298 889ft 70kts
08-May-17 10:14 33.692769 -117.855994 212 404ft 59kts
08-May-17 10:15 33.679015 -117.864874 206 60ft 43kts
08-May-17 10:16 33.677347 -117.866622 294 60ft 0kts
08-May-17 10:17 33.677972 -117.868054 302 60ft 16kts
08-May-17 10:18 33.674945 -117.870942 280 60ft 10kts
08-May-17 10:19 33.675311 -117.871839 217 60ft 0kts

Navigation Log

Ident Type
Flight plan parsing failed, navigation log unavailable